Time;durP1;ratioP1;P1;durP2;ratioP2;P2;SDS_P1;SDS_P2;PMS_P1;PMS_P2;Temp;Humidity;BMP_temperature;BMP_pressure;BME280_temperature;BME280_humidity;BME280_pressure;Samples;Min_cycle;Max_cycle;Signal;HPM_P1;HPM_P2
2024/02/02 00:02:07;;;;;;;10.20;4.50;;;10.70;99.90;;;;;;5014850;28;20091;-43
2024/02/02 00:04:33;;;;;;;8.50;4.25;;;10.70;99.90;;;;;;5015606;28;20021;-45
2024/02/02 00:06:59;;;;;;;6.72;4.38;;;10.60;99.90;;;;;;5015761;28;20101;-45
2024/02/02 00:09:25;;;;;;;7.80;4.88;;;10.60;99.90;;;;;;5015806;28;20022;-44
2024/02/02 00:11:50;;;;;;;7.47;4.25;;;10.60;99.90;;;;;;5015035;28;20022;-43
2024/02/02 00:14:16;;;;;;;7.07;4.13;;;10.60;99.90;;;;;;5013762;28;20041;-43
2024/02/02 00:16:42;;;;;;;8.68;4.28;;;10.60;99.90;;;;;;5015517;28;20068;-43
2024/02/02 00:19:08;;;;;;;6.60;3.80;;;10.60;99.90;;;;;;5014632;28;20026;-45
2024/02/02 00:21:33;;;;;;;7.88;3.92;;;10.60;99.90;;;;;;5015140;28;20088;-45
2024/02/02 00:23:59;;;;;;;5.90;3.83;;;10.60;99.90;;;;;;5015168;28;20030;-43
2024/02/02 00:26:25;;;;;;;7.45;4.07;;;10.60;99.90;;;;;;5014620;28;20539;-45
2024/02/02 00:28:51;;;;;;;8.35;4.20;;;10.60;99.90;;;;;;5014283;28;20503;-45
2024/02/02 00:31:21;;;;;;;8.82;4.30;;;10.60;99.90;;;;;;5014945;28;20228;-45
2024/02/02 00:33:50;;;;;;;5.72;4.10;;;10.60;99.90;;;;;;5013762;28;20025;-43
2024/02/02 00:36:16;;;;;;;6.60;3.90;;;10.60;99.90;;;;;;5014084;28;20556;-43
2024/02/02 00:38:42;;;;;;;5.88;3.75;;;10.60;99.90;;;;;;5013939;28;20112;-45
2024/02/02 00:41:08;;;;;;;6.28;3.80;;;10.60;99.90;;;;;;5013919;28;20439;-45
2024/02/02 00:43:34;;;;;;;4.68;3.30;;;10.60;99.90;;;;;;5013712;28;20022;-44
2024/02/02 00:46:00;;;;;;;5.25;3.60;;;10.60;99.90;;;;;;5013801;28;20033;-45
2024/02/02 00:48:27;;;;;;;6.25;3.67;;;10.60;99.90;;;;;;5014691;28;20052;-43
2024/02/02 00:50:52;;;;;;;6.95;3.70;;;10.50;99.90;;;;;;5013570;28;20041;-44
2024/02/02 00:53:18;;;;;;;5.75;3.55;;;10.50;99.90;;;;;;5013968;28;20022;-43
2024/02/02 00:55:43;;;;;;;6.63;3.80;;;10.50;99.90;;;;;;5013762;28;20017;-43
2024/02/02 00:58:09;;;;;;;6.85;3.88;;;10.50;99.90;;;;;;5013790;28;20327;-44
2024/02/02 01:00:35;;;;;;;6.30;3.25;;;10.50;99.90;;;;;;5013309;28;20021;-44
2024/02/02 01:03:01;;;;;;;6.28;3.35;;;10.50;99.90;;;;;;5014743;28;20026;-44
2024/02/02 01:05:27;;;;;;;4.85;3.13;;;10.50;99.90;;;;;;5013485;28;20022;-45
2024/02/02 01:07:52;;;;;;;4.90;3.00;;;10.50;99.90;;;;;;5013205;28;20030;-44
2024/02/02 01:10:18;;;;;;;4.40;2.95;;;10.50;99.90;;;;;;5013463;28;20030;-45
2024/02/02 01:12:45;;;;;;;4.57;2.92;;;10.50;99.90;;;;;;5013035;28;20062;-44
2024/02/02 01:15:11;;;;;;;5.35;3.22;;;10.50;99.90;;;;;;5012759;28;20018;-43
2024/02/02 01:17:39;;;;;;;5.53;3.10;;;10.50;99.90;;;;;;5013146;28;20443;-44
2024/02/02 01:20:06;;;;;;;5.68;3.20;;;10.50;99.90;;;;;;5013253;28;20018;-44
2024/02/02 01:22:32;;;;;;;5.35;3.45;;;10.50;99.90;;;;;;5015224;28;20026;-43
2024/02/02 01:24:58;;;;;;;4.43;2.85;;;10.50;99.90;;;;;;5013557;28;20058;-45
2024/02/02 01:27:24;;;;;;;4.32;3.03;;;10.50;99.90;;;;;;5013914;28;20029;-45
2024/02/02 01:29:50;;;;;;;5.20;3.25;;;10.40;99.90;;;;;;5013583;28;20079;-44
2024/02/02 01:32:16;;;;;;;4.35;2.72;;;10.40;99.90;;;;;;5013016;28;20065;-43
2024/02/02 01:34:41;;;;;;;5.65;2.95;;;10.40;99.90;;;;;;5013590;28;20024;-45
2024/02/02 01:37:07;;;;;;;4.50;2.83;;;10.40;99.90;;;;;;5014197;28;20026;-43
2024/02/02 01:39:32;;;;;;;3.55;2.53;;;10.40;99.90;;;;;;5014546;28;20460;-44
2024/02/02 01:41:59;;;;;;;5.00;2.70;;;10.40;99.90;;;;;;5013365;28;20431;-44
2024/02/02 01:44:25;;;;;;;4.20;2.63;;;10.40;99.90;;;;;;5013974;28;20025;-45
2024/02/02 01:46:50;;;;;;;5.40;3.33;;;10.50;99.90;;;;;;5013309;28;20041;-45
2024/02/02 01:49:16;;;;;;;3.95;2.50;;;10.40;99.90;;;;;;5012596;28;20153;-45
2024/02/02 01:51:42;;;;;;;4.78;2.83;;;10.40;99.90;;;;;;5012599;28;20483;-45
2024/02/02 01:54:08;;;;;;;5.63;2.80;;;10.40;99.90;;;;;;5012381;28;20021;-43
2024/02/02 01:56:35;;;;;;;4.63;2.83;;;10.40;99.90;;;;;;5012162;28;20017;-44
2024/02/02 01:59:03;;;;;;;3.15;2.30;;;10.40;99.90;;;;;;5012304;28;20061;-43
2024/02/02 02:01:30;;;;;;;4.20;2.63;;;10.40;99.90;;;;;;5012855;28;20002;-45
2024/02/02 02:03:55;;;;;;;4.13;2.45;;;10.40;99.90;;;;;;5013338;28;20030;-44
2024/02/02 02:06:21;;;;;;;3.65;2.30;;;10.40;99.90;;;;;;5013835;28;20113;-43
2024/02/02 02:08:47;;;;;;;3.85;2.25;;;10.40;99.90;;;;;;5012002;28;20581;-43
2024/02/02 02:11:13;;;;;;;3.85;2.30;;;10.40;99.90;;;;;;5012550;28;20041;-45
2024/02/02 02:13:39;;;;;;;4.28;2.63;;;10.40;99.90;;;;;;5012738;28;20076;-45
2024/02/02 02:16:05;;;;;;;3.70;2.60;;;10.30;99.90;;;;;;5013095;28;20429;-45
2024/02/02 02:18:30;;;;;;;3.90;2.45;;;10.30;99.90;;;;;;5012206;28;20065;-44
2024/02/02 02:20:56;;;;;;;4.13;2.47;;;10.30;99.90;;;;;;5012441;28;20132;-45
2024/02/02 02:23:22;;;;;;;2.95;2.45;;;10.30;99.90;;;;;;5011908;28;20472;-44
2024/02/02 02:25:47;;;;;;;3.45;2.40;;;10.30;99.90;;;;;;5012295;28;20049;-44
2024/02/02 02:28:13;;;;;;;4.07;2.33;;;10.30;99.90;;;;;;5011766;28;20018;-43
2024/02/02 02:30:39;;;;;;;5.30;2.67;;;10.30;99.90;;;;;;5012051;28;20034;-45
2024/02/02 02:33:05;;;;;;;2.75;2.00;;;10.30;99.90;;;;;;5013084;28;20384;-43
2024/02/02 02:35:31;;;;;;;3.05;2.25;;;10.30;99.90;;;;;;5010975;28;20026;-43
2024/02/02 02:37:57;;;;;;;3.72;2.13;;;10.30;99.90;;;;;;5012113;28;20033;-45
2024/02/02 02:40:23;;;;;;;4.53;2.28;;;10.30;99.90;;;;;;5011831;28;20034;-45
2024/02/02 02:42:51;;;;;;;4.57;2.10;;;10.30;99.90;;;;;;5011867;28;20029;-45
2024/02/02 02:45:17;;;;;;;4.53;2.25;;;10.30;99.90;;;;;;5011643;28;20049;-45
2024/02/02 02:47:44;;;;;;;3.22;2.30;;;10.30;99.90;;;;;;5012280;28;20029;-44
2024/02/02 02:50:10;;;;;;;4.53;2.40;;;10.30;99.90;;;;;;5012915;28;20017;-45
2024/02/02 02:52:36;;;;;;;3.40;1.73;;;10.30;99.90;;;;;;5012663;28;20038;-45
2024/02/02 02:55:01;;;;;;;3.35;2.10;;;10.30;99.90;;;;;;5012462;28;20088;-45
2024/02/02 02:57:27;;;;;;;4.75;2.35;;;10.30;99.90;;;;;;5012199;28;20036;-44
2024/02/02 02:59:53;;;;;;;4.82;2.20;;;10.30;99.90;;;;;;5011380;28;20053;-45
2024/02/02 03:02:19;;;;;;;3.60;2.15;;;10.30;99.90;;;;;;5012398;28;20036;-43
2024/02/02 03:04:45;;;;;;;4.10;2.00;;;10.30;99.90;;;;;;5010737;28;20449;-45
2024/02/02 03:07:11;;;;;;;4.07;2.20;;;10.20;99.90;;;;;;5012059;28;20064;-44
2024/02/02 03:09:37;;;;;;;3.78;2.13;;;10.20;99.90;;;;;;5011676;28;20038;-45
2024/02/02 03:12:03;;;;;;;3.00;2.22;;;10.20;99.90;;;;;;5012619;28;20026;-43
2024/02/02 03:14:28;;;;;;;2.78;2.05;;;10.20;99.90;;;;;;5012673;28;20022;-44
2024/02/02 03:16:54;;;;;;;4.35;2.47;;;10.20;99.90;;;;;;5011611;28;20072;-43
2024/02/02 03:19:20;;;;;;;3.25;2.05;;;10.20;99.90;;;;;;5011980;28;20014;-44
2024/02/02 03:21:45;;;;;;;4.65;2.05;;;10.20;99.90;;;;;;5011329;28;20041;-45
2024/02/02 03:24:11;;;;;;;3.00;2.00;;;10.20;99.90;;;;;;5011074;28;20484;-45
2024/02/02 03:26:37;;;;;;;3.78;1.92;;;10.20;99.90;;;;;;5011161;28;20502;-43
2024/02/02 03:29:03;;;;;;;3.47;2.03;;;10.20;99.90;;;;;;5011107;28;20033;-46
2024/02/02 03:31:30;;;;;;;3.40;2.00;;;10.20;99.90;;;;;;5011518;28;20403;-46
2024/02/02 03:33:57;;;;;;;3.38;2.00;;;10.20;99.90;;;;;;5011455;28;20046;-45
2024/02/02 03:36:23;;;;;;;3.28;2.15;;;10.20;99.90;;;;;;5011977;28;20063;-45
2024/02/02 03:38:49;;;;;;;4.03;2.10;;;10.20;99.90;;;;;;5012260;28;20097;-44
2024/02/02 03:41:17;;;;;;;2.40;1.90;;;10.20;99.90;;;;;;5011840;28;20026;-45
2024/02/02 03:43:43;;;;;;;4.30;2.20;;;10.20;99.90;;;;;;5011265;28;20018;-43
2024/02/02 03:46:08;;;;;;;4.05;2.10;;;10.20;99.90;;;;;;5012150;28;20026;-45
2024/02/02 03:48:34;;;;;;;3.17;1.95;;;10.20;99.90;;;;;;5013816;28;20469;-46
2024/02/02 03:51:00;;;;;;;3.80;1.98;;;10.20;99.90;;;;;;5016812;28;20033;-45
2024/02/02 03:53:25;;;;;;;4.80;1.80;;;10.20;99.90;;;;;;5014598;28;20389;-45
2024/02/02 03:55:51;;;;;;;2.17;1.65;;;10.20;99.90;;;;;;5014461;28;20024;-44
2024/02/02 03:58:16;;;;;;;3.85;1.77;;;10.20;99.90;;;;;;5014484;28;20030;-45
2024/02/02 04:00:42;;;;;;;2.78;1.73;;;10.20;99.90;;;;;;5014702;28;20056;-45
2024/02/02 04:03:08;;;;;;;2.63;1.60;;;10.20;99.90;;;;;;5014637;28;20468;-45
2024/02/02 04:05:33;;;;;;;2.08;1.50;;;10.20;99.90;;;;;;5014368;28;20029;-45
2024/02/02 04:07:59;;;;;;;2.33;1.52;;;10.10;99.90;;;;;;5014360;28;20026;-46
2024/02/02 04:10:25;;;;;;;3.08;1.73;;;10.10;99.90;;;;;;5014233;28;20365;-45
2024/02/02 04:12:50;;;;;;;3.30;1.52;;;10.10;99.90;;;;;;5015248;28;20021;-44
2024/02/02 04:15:16;;;;;;;2.67;1.70;;;10.20;99.90;;;;;;5014627;28;20105;-44
2024/02/02 04:17:42;;;;;;;3.85;1.48;;;10.10;99.90;;;;;;5014507;28;20026;-44
2024/02/02 04:20:08;;;;;;;3.67;1.77;;;10.10;99.90;;;;;;5014406;28;20036;-46
2024/02/02 04:22:33;;;;;;;2.53;1.73;;;10.10;99.90;;;;;;5014530;28;20104;-44
2024/02/02 04:24:59;;;;;;;2.85;1.50;;;10.10;99.90;;;;;;5013947;28;20069;-44
2024/02/02 04:27:25;;;;;;;2.17;1.45;;;10.10;99.90;;;;;;5013955;28;20026;-44
2024/02/02 04:29:52;;;;;;;3.50;1.60;;;10.10;99.90;;;;;;5014648;28;20026;-45
2024/02/02 04:32:17;;;;;;;1.90;1.30;;;10.10;99.90;;;;;;5014214;28;20036;-46
2024/02/02 04:34:43;;;;;;;2.80;1.70;;;10.10;99.90;;;;;;5014855;28;20025;-45
2024/02/02 04:37:09;;;;;;;2.60;1.60;;;10.10;99.90;;;;;;5015109;28;20030;-44
2024/02/02 04:39:34;;;;;;;3.60;1.40;;;10.10;99.90;;;;;;5014218;28;20619;-44
2024/02/02 04:42:00;;;;;;;3.42;1.45;;;10.10;99.90;;;;;;5014195;28;20498;-45
2024/02/02 04:44:26;;;;;;;2.38;1.52;;;10.10;99.90;;;;;;5014626;28;20392;-44
2024/02/02 04:46:51;;;;;;;3.08;1.40;;;10.10;99.90;;;;;;5013575;28;20472;-43
2024/02/02 04:49:17;;;;;;;2.63;1.55;;;10.10;99.90;;;;;;5013943;28;20464;-44
2024/02/02 04:51:43;;;;;;;2.42;1.40;;;10.10;99.90;;;;;;5014014;28;20522;-44
2024/02/02 04:54:08;;;;;;;2.45;1.60;;;10.10;99.90;;;;;;5013464;28;20116;-44
2024/02/02 04:56:34;;;;;;;1.92;1.45;;;10.10;99.90;;;;;;5013595;28;20522;-45
2024/02/02 04:59:00;;;;;;;2.08;1.35;;;10.10;99.90;;;;;;5013347;28;20071;-45
2024/02/02 05:01:25;;;;;;;2.25;1.38;;;10.10;99.90;;;;;;5012640;28;20041;-44
2024/02/02 05:03:52;;;;;;;1.95;1.35;;;10.10;99.90;;;;;;5013353;28;20420;-44
2024/02/02 05:06:18;;;;;;;2.95;1.50;;;10.10;99.90;;;;;;5013823;28;20033;-45
2024/02/02 05:08:44;;;;;;;4.13;1.70;;;10.00;99.90;;;;;;5013129;28;20037;-45
2024/02/02 05:11:11;;;;;;;2.30;1.55;;;10.10;99.90;;;;;;5013918;28;20036;-44
2024/02/02 05:13:36;;;;;;;2.95;1.80;;;10.00;99.90;;;;;;5013869;28;20034;-45
2024/02/02 05:16:02;;;;;;;3.17;1.25;;;10.10;99.90;;;;;;5014117;28;20021;-44
2024/02/02 05:18:28;;;;;;;2.58;1.60;;;10.00;99.90;;;;;;5012883;28;20033;-45
2024/02/02 05:20:54;;;;;;;2.50;1.35;;;10.00;99.90;;;;;;5014320;28;20397;-46
2024/02/02 05:23:20;;;;;;;2.78;1.50;;;10.00;99.90;;;;;;5013127;28;20080;-45
2024/02/02 05:25:46;;;;;;;3.72;1.60;;;10.00;99.90;;;;;;5012784;28;20034;-44
2024/02/02 05:28:11;;;;;;;2.53;1.33;;;10.00;99.90;;;;;;5012878;28;20030;-45
2024/02/02 05:30:37;;;;;;;2.03;1.30;;;10.00;99.90;;;;;;5012674;28;20026;-44
2024/02/02 05:33:04;;;;;;;2.25;1.58;;;10.00;99.90;;;;;;5012974;28;20538;-44
2024/02/02 05:35:30;;;;;;;2.10;1.27;;;10.00;99.90;;;;;;5012900;28;20021;-44
2024/02/02 05:37:56;;;;;;;1.83;1.35;;;10.00;99.90;;;;;;5013962;28;20021;-46
2024/02/02 05:40:22;;;;;;;1.98;1.45;;;10.00;99.90;;;;;;5013179;28;20022;-44
2024/02/02 05:42:47;;;;;;;3.15;1.40;;;10.00;99.90;;;;;;5013003;28;20041;-44
2024/02/02 05:45:13;;;;;;;2.05;1.30;;;10.00;99.90;;;;;;5012751;28;20053;-45
2024/02/02 05:47:39;;;;;;;2.40;1.50;;;10.00;99.90;;;;;;5013527;28;20056;-43
2024/02/02 05:50:04;;;;;;;2.22;1.35;;;10.00;99.90;;;;;;5014192;28;20022;-45
2024/02/02 05:52:30;;;;;;;2.60;1.50;;;10.00;99.90;;;;;;5012839;28;20030;-46
2024/02/02 05:54:56;;;;;;;2.10;1.40;;;10.00;99.90;;;;;;5013077;28;20464;-46
2024/02/02 05:57:21;;;;;;;2.38;1.40;;;10.00;99.90;;;;;;5012842;28;20052;-44
2024/02/02 05:59:49;;;;;;;2.47;1.70;;;10.00;99.90;;;;;;5012792;28;20030;-44
2024/02/02 06:02:14;;;;;;;2.83;1.60;;;10.00;99.90;;;;;;5012336;28;20026;-45
2024/02/02 06:04:40;;;;;;;3.80;1.52;;;10.00;99.90;;;;;;5012162;28;20112;-46
2024/02/02 06:07:06;;;;;;;2.13;1.42;;;10.00;99.90;;;;;;5013168;28;20037;-44
2024/02/02 06:09:32;;;;;;;1.92;1.40;;;10.00;99.90;;;;;;5012731;28;20041;-45
2024/02/02 06:11:57;;;;;;;2.15;1.60;;;10.00;99.90;;;;;;5011998;28;20033;-46
2024/02/02 06:14:25;;;;;;;3.72;1.73;;;10.00;99.90;;;;;;5011964;28;20120;-46
2024/02/02 06:16:52;;;;;;;3.03;1.73;;;10.00;99.90;;;;;;5013064;28;20022;-46
2024/02/02 06:19:17;;;;;;;2.67;1.50;;;10.00;99.90;;;;;;5012774;28;20457;-45
2024/02/02 06:21:43;;;;;;;2.20;1.75;;;10.00;99.90;;;;;;5012036;28;20053;-46
2024/02/02 06:24:08;;;;;;;2.28;1.55;;;9.90;99.90;;;;;;5011822;28;20044;-46
2024/02/02 06:26:36;;;;;;;2.50;1.65;;;10.00;99.90;;;;;;5012949;28;20026;-45
2024/02/02 06:29:03;;;;;;;3.33;2.20;;;10.00;99.90;;;;;;5012769;28;20026;-44
2024/02/02 06:31:28;;;;;;;3.08;1.98;;;9.90;99.90;;;;;;5013014;28;20099;-44
2024/02/02 06:33:54;;;;;;;3.35;1.95;;;9.90;99.90;;;;;;5013086;28;20042;-44
2024/02/02 06:36:24;;;;;;;3.20;2.10;;;9.90;99.90;;;;;;5012343;28;20068;-44
2024/02/02 06:38:50;;;;;;;2.22;1.80;;;9.90;99.90;;;;;;5012410;28;20511;-46
2024/02/02 06:41:17;;;;;;;2.95;1.90;;;9.90;99.90;;;;;;5011678;28;20454;-46
2024/02/02 06:43:43;;;;;;;3.10;1.80;;;9.90;99.90;;;;;;5011620;28;20111;-46
2024/02/02 06:46:09;;;;;;;3.33;2.25;;;9.90;99.90;;;;;;5011882;28;20062;-45
2024/02/02 06:48:35;;;;;;;3.25;2.10;;;9.90;99.90;;;;;;5012420;28;20045;-46
2024/02/02 06:51:00;;;;;;;2.95;1.60;;;9.90;99.90;;;;;;5012079;28;20037;-45
2024/02/02 06:53:29;;;;;;;2.92;1.90;;;9.90;99.90;;;;;;5012317;28;20022;-45
2024/02/02 06:55:54;;;;;;;2.47;1.98;;;9.90;99.90;;;;;;5011330;28;20030;-46
2024/02/02 06:58:41;;;;;;;3.40;2.20;;;9.90;99.90;;;;;;5011472;28;20032;-46
2024/02/02 07:01:08;;;;;;;3.92;2.20;;;9.90;99.90;;;;;;5012157;28;20076;-44
2024/02/02 07:03:34;;;;;;;3.47;2.10;;;9.90;99.90;;;;;;5012801;28;20072;-44
2024/02/02 07:06:02;;;;;;;2.80;1.92;;;9.90;99.90;;;;;;5011936;28;20075;-44
2024/02/02 07:08:31;;;;;;;2.65;2.00;;;9.90;99.90;;;;;;5011664;28;20018;-46
2024/02/02 07:11:12;;;;;;;3.10;2.25;;;9.90;99.90;;;;;;5012177;28;20045;-46
2024/02/02 07:13:47;;;;;;;3.85;2.05;;;9.90;99.90;;;;;;5011251;28;20038;-44
2024/02/02 07:16:19;;;;;;;2.85;2.03;;;9.90;99.90;;;;;;5012480;28;20018;-46
2024/02/02 07:18:46;;;;;;;2.63;2.03;;;9.90;99.90;;;;;;5012505;28;20068;-45
2024/02/02 07:21:13;;;;;;;3.78;2.40;;;9.90;99.90;;;;;;5011897;28;20021;-46
2024/02/02 07:23:41;;;;;;;3.15;2.20;;;10.00;99.90;;;;;;5014299;28;20428;-45
2024/02/02 07:26:12;;;;;;;2.58;2.28;;;9.90;99.90;;;;;;5015955;28;20144;-46
2024/02/02 07:28:38;;;;;;;3.22;2.40;;;10.00;99.90;;;;;;5015475;28;20052;-46
2024/02/02 07:31:08;;;;;;;2.85;2.00;;;10.00;99.90;;;;;;5016745;28;20092;-46
2024/02/02 07:33:36;;;;;;;3.05;2.33;;;10.00;99.90;;;;;;5015069;28;20113;-46
2024/02/02 07:36:03;;;;;;;2.65;1.85;;;10.00;99.90;;;;;;5016082;28;20033;-46
2024/02/02 07:38:45;;;;;;;3.35;2.17;;;10.00;99.90;;;;;;5015882;28;20079;-43
2024/02/02 07:41:19;;;;;;;3.88;2.40;;;10.10;99.90;;;;;;5015760;28;20022;-46
2024/02/02 07:43:46;;;;;;;4.65;2.22;;;10.10;99.90;;;;;;5016682;28;20022;-44
2024/02/02 07:46:12;;;;;;;2.47;2.15;;;10.10;99.90;;;;;;5015715;28;20025;-46
2024/02/02 07:48:39;;;;;;;2.53;2.10;;;10.10;99.90;;;;;;5015458;28;20488;-45
2024/02/02 07:51:05;;;;;;;2.78;2.03;;;10.20;99.90;;;;;;5015417;28;20030;-46
2024/02/02 07:53:31;;;;;;;2.70;2.08;;;10.20;99.90;;;;;;5014569;28;20053;-46
2024/02/02 07:55:57;;;;;;;2.58;1.95;;;10.30;99.90;;;;;;5014877;28;20044;-46
2024/02/02 07:58:23;;;;;;;2.67;2.10;;;10.30;99.90;;;;;;5014397;28;20531;-44
2024/02/02 08:00:50;;;;;;;3.13;2.20;;;10.40;99.90;;;;;;5015102;28;20042;-44
2024/02/02 08:03:16;;;;;;;3.05;2.08;;;10.40;99.90;;;;;;5014900;28;20029;-44
2024/02/02 08:05:41;;;;;;;2.83;2.03;;;10.50;99.90;;;;;;5015650;28;20038;-45
2024/02/02 08:08:08;;;;;;;3.05;2.00;;;10.50;99.90;;;;;;5016647;28;20022;-46
2024/02/02 08:10:34;;;;;;;3.55;1.95;;;10.60;99.90;;;;;;5015517;28;20108;-44
2024/02/02 08:13:00;;;;;;;2.63;1.92;;;10.60;99.90;;;;;;5015614;28;20034;-44
2024/02/02 08:15:26;;;;;;;2.63;1.90;;;10.70;99.90;;;;;;5015252;28;20022;-44
2024/02/02 08:17:52;;;;;;;2.22;2.00;;;10.70;99.90;;;;;;5015242;28;20101;-45
2024/02/02 08:20:18;;;;;;;2.88;1.95;;;10.80;99.90;;;;;;5014554;28;20069;-45
2024/02/02 08:22:46;;;;;;;2.78;1.90;;;10.80;99.90;;;;;;5015344;28;20439;-46
2024/02/02 08:25:13;;;;;;;3.33;2.40;;;10.90;99.90;;;;;;5015054;28;20064;-46
2024/02/02 08:27:38;;;;;;;1.90;1.70;;;11.00;99.90;;;;;;5015724;28;20492;-46
2024/02/02 08:30:07;;;;;;;4.07;2.90;;;11.00;99.90;;;;;;5014815;28;20079;-41
2024/02/02 08:32:34;;;;;;;4.55;3.03;;;11.10;99.90;;;;;;5015265;28;20478;-45
2024/02/02 08:35:00;;;;;;;5.10;3.03;;;11.20;99.90;;;;;;5013706;28;20018;-45
2024/02/02 08:37:26;;;;;;;4.65;3.22;;;11.20;99.90;;;;;;5012900;28;20032;-45
2024/02/02 08:39:56;;;;;;;3.70;2.55;;;11.30;99.90;;;;;;5014850;28;20037;-45
2024/02/02 08:42:23;;;;;;;5.85;3.30;;;11.30;99.90;;;;;;5015345;28;20034;-43
2024/02/02 08:44:55;;;;;;;5.05;2.95;;;11.40;99.90;;;;;;5014073;28;20510;-44
2024/02/02 08:47:23;;;;;;;3.60;2.50;;;11.40;99.90;;;;;;5014734;28;20496;-43
2024/02/02 08:49:58;;;;;;;4.72;3.03;;;11.50;99.90;;;;;;5014628;28;20120;-45
2024/02/02 08:52:43;;;;;;;3.63;2.70;;;11.60;99.90;;;;;;5014551;28;20116;-45
2024/02/02 08:55:49;;;;;;;5.15;2.92;;;11.60;99.90;;;;;;5014253;28;20533;-44
2024/02/02 08:58:30;;;;;;;4.60;2.95;;;11.70;99.90;;;;;;5021097;28;20073;-43
2024/02/02 09:00:57;;;;;;;3.22;2.75;;;11.80;99.90;;;;;;5014333;28;20587;-45
2024/02/02 09:03:46;;;;;;;4.85;2.72;;;11.80;99.90;;;;;;5014838;28;20061;-45
2024/02/02 09:06:43;;;;;;;3.72;2.80;;;11.90;99.90;;;;;;5013366;28;20034;-45
2024/02/02 09:09:14;;;;;;;3.97;2.58;;;12.00;99.90;;;;;;5013776;28;20275;-45
2024/02/02 09:11:43;;;;;;;3.38;2.60;;;12.00;99.90;;;;;;5014644;28;20022;-44
2024/02/02 09:14:14;;;;;;;3.38;2.60;;;12.10;99.90;;;;;;5013269;28;20050;-44
2024/02/02 09:16:42;;;;;;;2.90;2.42;;;12.10;99.90;;;;;;5013017;28;20014;-45
2024/02/02 09:19:19;;;;;;;6.28;2.40;;;12.20;99.90;;;;;;5012939;28;20472;-45
2024/02/02 09:21:46;;;;;;;2.63;2.35;;;12.20;99.90;;;;;;5014763;28;20026;-45
2024/02/02 09:24:26;;;;;;;4.43;2.78;;;12.30;99.90;;;;;;5012981;28;20403;-45
2024/02/02 09:26:51;;;;;;;3.85;2.60;;;12.40;99.90;;;;;;5013375;28;20070;-45
2024/02/02 09:29:18;;;;;;;4.35;2.55;;;12.40;99.90;;;;;;5012743;28;20030;-44
2024/02/02 09:31:44;;;;;;;3.40;2.55;;;12.50;99.80;;;;;;5012668;28;20032;-44
2024/02/02 09:34:20;;;;;;;3.90;2.75;;;12.50;99.70;;;;;;5013079;28;20026;-45
2024/02/02 09:36:45;;;;;;;3.47;2.42;;;12.60;99.60;;;;;;5013418;28;20044;-45
2024/02/02 09:39:48;;;;;;;3.08;2.35;;;12.60;99.50;;;;;;5012660;28;20473;-42
2024/02/02 09:42:31;;;;;;;3.33;2.53;;;12.70;99.40;;;;;;5013984;28;20021;-45
2024/02/02 09:45:03;;;;;;;3.13;2.33;;;12.70;99.30;;;;;;5014052;28;20026;-45
2024/02/02 09:47:54;;;;;;;2.38;1.90;;;12.80;99.20;;;;;;5014214;28;20033;-45
2024/02/02 09:50:25;;;;;;;3.40;2.30;;;12.80;99.10;;;;;;5013269;28;20057;-44
2024/02/02 09:53:20;;;;;;;3.15;2.33;;;12.80;99.00;;;;;;5013336;28;20094;-45
2024/02/02 09:55:54;;;;;;;;;;;12.90;99.00;;;;;;5021168;28;20096;-45
2024/02/02 09:58:41;;;;;;;3.40;2.45;;;13.00;99.00;;;;;;5012207;28;19905;-46
2024/02/02 10:01:19;;;;;;;3.00;1.88;;;13.00;98.80;;;;;;5013014;28;20022;-45
2024/02/02 10:04:16;;;;;;;2.92;2.15;;;13.00;98.70;;;;;;5013268;28;20129;-43
2024/02/02 10:07:13;;;;;;;3.17;1.85;;;13.10;98.50;;;;;;5013052;28;20365;-45
2024/02/02 10:09:57;;;;;;;3.03;1.60;;;13.10;98.30;;;;;;5013411;28;20042;-45
2024/02/02 10:12:32;;;;;;;3.13;1.77;;;13.20;98.20;;;;;;5013399;28;20026;-45
2024/02/02 10:15:05;;;;;;;;;;;13.20;98.10;;;;;;5013708;28;20022;-45
2024/02/02 10:17:56;;;;;;;3.05;1.83;;;13.30;98.10;;;;;;5012695;28;19913;-44
2024/02/02 10:20:28;;;;;;;1.77;1.40;;;13.30;98.00;;;;;;5012719;28;20499;-45
2024/02/02 10:23:13;;;;;;;2.72;1.60;;;13.40;98.00;;;;;;5012998;28;20112;-45
2024/02/02 10:26:05;;;;;;;1.95;1.45;;;13.40;97.90;;;;;;5013267;28;20403;-44
2024/02/02 10:28:44;;;;;;;3.08;1.75;;;13.50;97.80;;;;;;5012618;28;20109;-43
2024/02/02 10:31:15;;;;;;;2.17;1.50;;;13.50;97.80;;;;;;5013576;28;20105;-45
2024/02/02 10:33:57;;;;;;;1.88;1.38;;;13.50;97.70;;;;;;5012090;28;20089;-43
2024/02/02 10:36:25;;;;;;;1.85;1.40;;;13.60;97.70;;;;;;5011588;28;20484;-44
2024/02/02 10:38:54;;;;;;;2.72;1.67;;;13.60;97.60;;;;;;5011576;28;20021;-45
2024/02/02 10:41:36;;;;;;;2.85;1.52;;;13.70;97.60;;;;;;5012376;28;20022;-45
2024/02/02 10:44:48;;;;;;;1.60;1.40;;;13.70;97.50;;;;;;5011949;28;20057;-44
2024/02/02 10:47:50;;;;;;;2.78;1.40;;;13.70;97.50;;;;;;5012843;28;20032;-45
2024/02/02 10:50:50;;;;;;;2.47;1.40;;;13.80;97.50;;;;;;5013939;28;20120;-44
2024/02/02 10:54:01;;;;;;;1.70;1.38;;;13.80;97.40;;;;;;5011438;28;20073;-45
2024/02/02 10:56:49;;;;;;;3.03;1.40;;;13.90;97.30;;;;;;5017851;28;20034;-45
2024/02/02 10:59:24;;;;;;;2.65;1.67;;;13.90;97.30;;;;;;5011017;28;20033;-43
2024/02/02 11:01:57;;;;;;;2.28;1.30;;;14.00;97.30;;;;;;5012223;28;20018;-44
2024/02/02 11:04:31;;;;;;;2.47;1.30;;;14.00;97.20;;;;;;5012031;28;20045;-44
2024/02/02 11:07:20;;;;;;;;;;;14.10;97.20;;;;;;5012156;28;20491;-45
2024/02/02 11:10:07;;;;;;;2.10;1.25;;;14.20;97.20;;;;;;5008152;28;19912;-44
2024/02/02 11:12:42;;;;;;;1.85;1.10;;;14.20;97.10;;;;;;5011297;28;20030;-45
2024/02/02 11:15:32;;;;;;;1.48;1.20;;;14.30;97.10;;;;;;5011388;28;20365;-45
2024/02/02 11:18:04;;;;;;;1.48;1.05;;;14.40;97.00;;;;;;5011488;28;20041;-44
2024/02/02 11:20:56;;;;;;;3.30;1.30;;;14.40;97.00;;;;;;5011311;28;20101;-44
2024/02/02 11:23:57;;;;;;;2.20;1.30;;;14.40;97.00;;;;;;5011623;28;20032;-44
2024/02/02 11:26:31;;;;;;;2.00;1.20;;;14.60;97.00;;;;;;5025732;28;20049;-45
2024/02/02 11:29:09;;;;;;;1.70;1.20;;;14.60;96.90;;;;;;5012351;28;20022;-45
2024/02/02 11:32:02;;;;;;;1.42;1.00;;;14.70;96.80;;;;;;5011763;28;20044;-45
2024/02/02 11:34:54;;;;;;;1.70;1.08;;;14.80;96.80;;;;;;5011486;28;20458;-45
2024/02/02 11:37:43;;;;;;;1.30;0.93;;;14.90;96.70;;;;;;5012676;28;20391;-45
2024/02/02 11:40:10;;;;;;;0.95;0.80;;;15.00;96.60;;;;;;5011974;28;20487;-46
2024/02/02 11:42:40;;;;;;;1.83;1.10;;;15.00;96.50;;;;;;5011777;28;20416;-45
2024/02/02 11:45:09;;;;;;;1.20;0.82;;;15.10;96.50;;;;;;5011246;28;20046;-44
2024/02/02 11:47:47;;;;;;;1.02;0.93;;;15.20;96.40;;;;;;5013096;28;20034;-46
2024/02/02 11:50:17;;;;;;;2.05;0.70;;;15.30;96.30;;;;;;5011079;28;20026;-45
2024/02/02 11:52:51;;;;;;;1.77;0.75;;;15.40;96.10;;;;;;5011043;28;20101;-44
2024/02/02 11:55:29;;;;;;;1.40;0.80;;;15.40;95.90;;;;;;5011553;28;20030;-44
2024/02/02 11:58:05;;;;;;;1.10;0.80;;;15.50;95.70;;;;;;5011734;28;20038;-45
2024/02/02 12:00:40;;;;;;;1.23;0.80;;;15.60;95.60;;;;;;5011423;28;20026;-44
2024/02/02 12:03:29;;;;;;;1.30;0.70;;;15.70;95.50;;;;;;5011386;28;20423;-45
2024/02/02 12:06:01;;;;;;;0.88;0.50;;;15.80;95.40;;;;;;5010805;28;20120;-45
2024/02/02 12:08:34;;;;;;;1.88;0.77;;;15.90;95.30;;;;;;5011627;28;20029;-44
2024/02/02 12:11:03;;;;;;;0.80;0.57;;;15.90;95.20;;;;;;5016448;28;20111;-45
2024/02/02 12:13:32;;;;;;;1.08;0.70;;;16.00;95.10;;;;;;5014757;28;20057;-45
2024/02/02 12:15:58;;;;;;;1.00;0.70;;;16.10;95.00;;;;;;5015204;28;20194;-45
2024/02/02 12:18:25;;;;;;;1.38;0.75;;;16.20;94.90;;;;;;5015403;28;20022;-44
2024/02/02 12:20:51;;;;;;;1.27;0.65;;;16.20;94.80;;;;;;5015577;28;20014;-43
2024/02/02 12:23:16;;;;;;;0.98;0.65;;;16.30;94.70;;;;;;5014890;28;20032;-45
2024/02/02 12:25:42;;;;;;;1.35;0.80;;;16.40;94.60;;;;;;5013963;28;20445;-44
2024/02/02 12:28:08;;;;;;;1.10;0.70;;;16.50;94.50;;;;;;5014246;28;20030;-42
2024/02/02 12:30:34;;;;;;;1.98;0.60;;;16.50;94.40;;;;;;5014348;28;20033;-44
2024/02/02 12:33:03;;;;;;;1.08;0.75;;;16.60;94.30;;;;;;5014621;28;20030;-45
2024/02/02 12:35:30;;;;;;;1.45;0.68;;;16.70;94.30;;;;;;5014251;28;20480;-45
2024/02/02 12:37:57;;;;;;;1.48;0.77;;;16.70;94.20;;;;;;5016449;28;20029;-45
2024/02/02 12:40:23;;;;;;;0.73;0.50;;;16.70;94.10;;;;;;5014300;28;20022;-45
2024/02/02 12:42:50;;;;;;;0.68;0.60;;;16.80;94.00;;;;;;5014939;28;20111;-44
2024/02/02 12:45:16;;;;;;;1.25;0.55;;;16.80;93.90;;;;;;5013648;28;20026;-43
2024/02/02 12:47:42;;;;;;;0.73;0.50;;;16.90;93.80;;;;;;5014446;28;20072;-44
2024/02/02 12:50:15;;;;;;;0.60;0.30;;;16.90;94.10;;;;;;5014813;28;20026;-45
2024/02/02 12:52:50;;;;;;;0.98;0.70;;;17.00;93.70;;;;;;5015140;28;20022;-45
2024/02/02 12:55:16;;;;;;;0.77;0.60;;;17.00;93.70;;;;;;5015158;28;20026;-44
2024/02/02 12:57:42;;;;;;;0.63;0.55;;;17.00;93.60;;;;;;5015179;28;20026;-45
2024/02/02 13:00:14;;;;;;;0.73;0.40;;;17.00;93.60;;;;;;5013936;28;20105;-45
2024/02/02 13:02:41;;;;;;;2.00;0.60;;;17.00;93.50;;;;;;5014433;28;20036;-45